createdAt,value
2022-12-04T00:00:35.802Z,70.2
2022-12-04T00:01:52.648Z,69.5
2022-12-04T00:03:09.729Z,69
2022-12-04T00:04:27.252Z,69
2022-12-04T00:05:43.721Z,69.4
2022-12-04T00:07:00.743Z,70.3
2022-12-04T00:08:17.714Z,71
2022-12-04T00:09:34.707Z,71.6
2022-12-04T00:10:51.751Z,72.1
2022-12-04T00:12:08.691Z,72.2
2022-12-04T00:13:25.663Z,72.3
2022-12-04T00:15:16.324Z,72
2022-12-04T00:15:59.736Z,71.9
2022-12-04T00:17:16.690Z,72
2022-12-04T00:18:33.663Z,71.8
2022-12-04T00:19:50.663Z,71.2
2022-12-04T00:21:07.678Z,71.1
2022-12-04T00:22:24.733Z,70.9
2022-12-04T00:23:41.670Z,70.9
2022-12-04T00:24:58.710Z,70.7
2022-12-04T00:26:15.680Z,70.5
2022-12-04T00:27:32.735Z,70.6
2022-12-04T00:28:49.684Z,70.9
2022-12-04T00:30:06.715Z,70.9
2022-12-04T00:31:23.792Z,70.7
2022-12-04T00:32:40.844Z,70.7
2022-12-04T00:33:58.491Z,70.7
2022-12-04T00:35:14.727Z,71.2
2022-12-04T00:36:31.708Z,71
2022-12-04T00:37:48.716Z,71
2022-12-04T00:39:05.737Z,70.9
2022-12-04T00:40:23.887Z,71.1
2022-12-04T00:41:40.743Z,71.2
2022-12-04T00:42:57.713Z,71.2
2022-12-04T00:44:14.944Z,71.2
2022-12-04T00:45:32.521Z,71.2
2022-12-04T00:46:49.729Z,71.3
2022-12-04T00:48:06.712Z,71.4
2022-12-04T00:49:23.797Z,71.1
2022-12-04T00:50:40.765Z,70.8
2022-12-04T00:51:57.717Z,70.9
2022-12-04T00:53:14.735Z,71.1
2022-12-04T00:54:31.973Z,71.4
2022-12-04T00:55:48.832Z,71.7
2022-12-04T00:57:05.741Z,72.1
2022-12-04T00:58:22.721Z,72.2
2022-12-04T00:59:39.798Z,72.2
2022-12-04T01:00:56.874Z,72.3
2022-12-04T01:02:13.760Z,73
2022-12-04T01:03:30.754Z,73.4
2022-12-04T01:04:47.736Z,73.7
2022-12-04T01:06:05.197Z,73.7
2022-12-04T01:07:21.730Z,73.8
2022-12-04T01:08:38.888Z,73.7
2022-12-04T01:09:56.109Z,73.5
2022-12-04T01:11:12.818Z,73.2
2022-12-04T01:12:29.765Z,72.8
2022-12-04T01:13:46.798Z,72.5
2022-12-04T01:15:04.189Z,72.4
2022-12-04T01:16:20.835Z,72.7
2022-12-04T01:17:37.769Z,72.8
2022-12-04T01:18:55.043Z,72.8
2022-12-04T01:20:11.887Z,72.7
2022-12-04T01:21:29.524Z,72.7
2022-12-04T01:22:45.979Z,72.8
2022-12-04T01:24:02.762Z,72.6
2022-12-04T01:25:19.758Z,72.6
2022-12-04T01:26:36.880Z,72.6
2022-12-04T01:27:53.795Z,72.5
2022-12-04T01:29:10.754Z,72.6
2022-12-04T01:30:27.984Z,72.4
2022-12-04T01:31:44.924Z,72.4
2022-12-04T01:33:01.857Z,72
2022-12-04T01:34:18.751Z,71.5
2022-12-04T01:35:36.615Z,71.4
2022-12-04T01:36:53.841Z,71.1
2022-12-04T01:38:10.794Z,70.9
2022-12-04T01:39:27.775Z,70.7
2022-12-04T01:40:44.755Z,70.4
2022-12-04T01:42:01.820Z,70.7
2022-12-04T01:43:18.802Z,71.2
2022-12-04T01:44:35.848Z,71.6
2022-12-04T01:45:52.868Z,72.1
2022-12-04T01:47:09.820Z,72.3
2022-12-04T01:48:26.813Z,72.1
2022-12-04T01:49:43.794Z,72
2022-12-04T01:51:00.788Z,71.9
2022-12-04T01:52:17.798Z,71.6
2022-12-04T01:53:34.820Z,71.5
2022-12-04T01:54:51.788Z,71.4
2022-12-04T01:56:08.802Z,71.4
2022-12-04T01:57:25.904Z,71.7
2022-12-04T01:58:42.857Z,71.8
2022-12-04T01:59:59.801Z,71.8
2022-12-04T02:01:16.864Z,71.6
2022-12-04T02:02:33.882Z,71.3
2022-12-04T02:03:50.864Z,71.4
2022-12-04T02:05:07.848Z,71.4
2022-12-04T02:06:24.828Z,71.4
2022-12-04T02:07:41.935Z,71.4
2022-12-04T02:08:59.049Z,71.4
2022-12-04T02:10:15.911Z,71.4
2022-12-04T02:11:32.836Z,71.5
2022-12-04T02:12:49.825Z,71.5
2022-12-04T02:14:06.880Z,71.5
2022-12-04T02:15:23.859Z,71.1
2022-12-04T02:16:40.902Z,70.8
2022-12-04T02:17:57.871Z,70.5
2022-12-04T02:19:14.832Z,70.2
2022-12-04T02:20:31.821Z,70.3
2022-12-04T02:21:48.856Z,70.8
2022-12-04T02:23:05.839Z,71.6
2022-12-04T02:24:23.354Z,72.1
2022-12-04T02:25:40.075Z,72.3
2022-12-04T02:26:56.834Z,72.7
2022-12-04T02:28:13.856Z,73.1
2022-12-04T02:29:30.908Z,73.4
2022-12-04T02:30:47.928Z,73.2
2022-12-04T02:32:04.859Z,72.8
2022-12-04T02:33:21.870Z,72.2
2022-12-04T02:34:38.838Z,71.5
2022-12-04T02:35:55.845Z,70.9
2022-12-04T02:37:12.901Z,70.5
2022-12-04T02:38:29.879Z,70.1
2022-12-04T02:39:46.836Z,69.9
2022-12-04T02:41:03.861Z,69.7
2022-12-04T02:42:20.864Z,69.6
2022-12-04T02:43:37.914Z,69.5
2022-12-04T02:44:54.884Z,69.4
2022-12-04T02:46:12.249Z,69.2
2022-12-04T02:47:28.854Z,69.2
2022-12-04T02:48:45.915Z,69.1
2022-12-04T02:50:02.976Z,69.1
2022-12-04T02:51:19.884Z,69.1
2022-12-04T02:52:36.910Z,69.1
2022-12-04T02:53:53.857Z,69.1
2022-12-04T02:55:10.920Z,69.2
2022-12-04T02:56:27.899Z,68.8
2022-12-04T02:57:44.908Z,68.6
2022-12-04T02:59:01.937Z,68.4
2022-12-04T03:00:18.948Z,68.4
2022-12-04T03:01:36.005Z,68.3
2022-12-04T03:02:52.978Z,68.4
2022-12-04T03:04:09.905Z,68.4
2022-12-04T03:05:26.934Z,69.1
2022-12-04T03:06:44.000Z,70.1
2022-12-04T03:08:01.014Z,71.2
2022-12-04T03:09:17.909Z,72
2022-12-04T03:10:34.929Z,72.8
2022-12-04T03:11:51.957Z,73.4
2022-12-04T03:13:08.900Z,73.6
2022-12-04T03:14:25.895Z,73.8
2022-12-04T03:15:43.013Z,73.7
2022-12-04T03:16:59.997Z,73.5
2022-12-04T03:18:16.935Z,73
2022-12-04T03:19:33.898Z,72.7
2022-12-04T03:20:50.933Z,72.3
2022-12-04T03:22:07.944Z,71.8
2022-12-04T03:23:24.909Z,71.5
2022-12-04T03:24:41.918Z,71.4
2022-12-04T03:25:58.928Z,71.2
2022-12-04T03:27:15.932Z,71
2022-12-04T03:28:32.908Z,70.9
2022-12-04T03:29:49.921Z,70.9
2022-12-04T03:31:07.604Z,71.1
2022-12-04T03:32:24.929Z,71.2
2022-12-04T03:33:41.931Z,71.1
2022-12-04T03:34:58.955Z,70.7
2022-12-04T03:36:15.997Z,70.4
2022-12-04T03:37:32.923Z,70.2
2022-12-04T03:38:49.977Z,70
2022-12-04T03:40:06.968Z,69.8
2022-12-04T03:41:23.927Z,69.6
2022-12-04T03:42:40.971Z,69.7
2022-12-04T03:43:58.009Z,69.5
2022-12-04T03:45:14.947Z,69.2
2022-12-04T03:46:32.079Z,69.1
2022-12-04T03:47:48.936Z,69.2
2022-12-04T03:49:05.992Z,69.1
2022-12-04T03:50:22.933Z,69.3
2022-12-04T03:51:39.933Z,69.2
2022-12-04T03:52:56.972Z,69.2
2022-12-04T03:54:13.961Z,69.3
2022-12-04T03:55:30.990Z,69.7
2022-12-04T03:56:47.943Z,69.9
2022-12-04T03:58:05.154Z,70.8
2022-12-04T03:59:21.974Z,71.6
2022-12-04T04:00:39.251Z,72.2
2022-12-04T04:01:56.094Z,72.9
2022-12-04T04:03:12.972Z,73.5
2022-12-04T04:04:29.959Z,74
2022-12-04T04:05:46.991Z,74.3
2022-12-04T04:07:03.989Z,74
2022-12-04T04:08:20.994Z,73.6
2022-12-04T04:09:37.983Z,73.5
2022-12-04T04:10:55.002Z,73.1
2022-12-04T04:12:11.979Z,72.8
2022-12-04T04:13:29.041Z,72.7
2022-12-04T04:14:46.033Z,72.8
2022-12-04T04:16:03.082Z,73
2022-12-04T04:17:20.016Z,73.3
2022-12-04T04:18:37.002Z,73.5
2022-12-04T04:19:54.499Z,73.5
2022-12-04T04:21:10.988Z,73.7
2022-12-04T04:22:27.990Z,73.8
2022-12-04T04:23:44.981Z,73.9
2022-12-04T04:25:02.587Z,74.2
2022-12-04T04:26:19.983Z,74.7
2022-12-04T04:27:36.985Z,75.3
2022-12-04T04:28:54.057Z,75.6
2022-12-04T04:30:11.205Z,75.6
2022-12-04T04:31:28.037Z,75.6
2022-12-04T04:32:45.036Z,75.8
2022-12-04T04:34:02.053Z,76
2022-12-04T04:35:19.049Z,76.3
2022-12-04T04:36:36.003Z,76.6
2022-12-04T04:37:53.008Z,76.8
2022-12-04T04:39:10.001Z,76.8
2022-12-04T04:40:27.038Z,76.8
2022-12-04T04:41:44.038Z,76.7
2022-12-04T04:43:01.035Z,77
2022-12-04T04:44:18.043Z,77.3
2022-12-04T04:45:35.081Z,77.8
2022-12-04T04:46:52.077Z,78.1
2022-12-04T04:48:09.032Z,78.3
2022-12-04T04:49:26.043Z,78.3
2022-12-04T04:50:43.077Z,78.3
2022-12-04T04:52:00.080Z,78.2
2022-12-04T04:53:17.022Z,77.9
2022-12-04T04:54:34.047Z,77.8
2022-12-04T04:55:51.023Z,77.9
2022-12-04T04:57:08.057Z,78
2022-12-04T04:58:25.015Z,77.8
2022-12-04T04:59:42.055Z,77.6
2022-12-04T05:00:59.050Z,77.8
2022-12-04T05:02:16.057Z,77.8
2022-12-04T05:03:33.061Z,77.6
2022-12-04T05:04:50.230Z,77.5
2022-12-04T05:06:07.079Z,77.4
2022-12-04T05:07:24.042Z,77.6
2022-12-04T05:08:41.058Z,77.7
2022-12-04T05:09:58.486Z,77.9
2022-12-04T05:11:15.116Z,77.9
2022-12-04T05:12:32.092Z,77.7
2022-12-04T05:13:49.068Z,77.2
2022-12-04T05:15:06.260Z,77.2
2022-12-04T05:16:23.141Z,77
2022-12-04T05:17:40.083Z,76.9
2022-12-04T05:18:57.100Z,76.8
2022-12-04T05:20:14.056Z,77.1
2022-12-04T05:21:31.074Z,77.2
2022-12-04T05:22:48.167Z,77.5
2022-12-04T05:24:05.055Z,77.5
2022-12-04T05:25:22.069Z,77.6
2022-12-04T05:26:39.076Z,77.6
2022-12-04T05:27:56.093Z,77.5
2022-12-04T05:29:13.062Z,78
2022-12-04T05:30:30.067Z,78.5
2022-12-04T05:31:47.199Z,79.2
2022-12-04T05:33:04.105Z,79.9
2022-12-04T05:34:21.147Z,80.1
2022-12-04T05:35:38.103Z,80.4
2022-12-04T05:36:55.153Z,80.3
2022-12-04T05:38:12.069Z,80.1
2022-12-04T05:39:29.083Z,79.7
2022-12-04T05:40:46.091Z,79.4
2022-12-04T05:42:03.129Z,79.1
2022-12-04T05:43:20.156Z,78.7
2022-12-04T05:44:37.088Z,78.3
2022-12-04T05:45:54.084Z,77.8
2022-12-04T05:47:11.167Z,77.8
2022-12-04T05:48:28.265Z,77.6
2022-12-04T05:49:45.152Z,77.4
2022-12-04T05:51:02.162Z,77.6
2022-12-04T05:52:19.134Z,77.9
2022-12-04T05:53:36.136Z,78.1
2022-12-04T05:54:53.145Z,78.5
2022-12-04T05:56:10.097Z,78.6
2022-12-04T05:57:29.893Z,79
2022-12-04T05:58:44.143Z,79.4
2022-12-04T06:00:01.123Z,79.6
2022-12-04T06:01:18.133Z,79.7
2022-12-04T06:02:35.280Z,79.8
2022-12-04T06:03:52.144Z,79.8
2022-12-04T06:05:09.163Z,79.9
2022-12-04T06:06:26.119Z,79.9
2022-12-04T06:07:43.187Z,79.5
2022-12-04T06:09:00.173Z,78.7
2022-12-04T06:10:17.280Z,78
2022-12-04T06:11:34.133Z,77.4
2022-12-04T06:12:51.118Z,76.5
2022-12-04T06:14:08.135Z,75.8
2022-12-04T06:15:25.241Z,74.9
2022-12-04T06:16:42.196Z,74.2
2022-12-04T06:17:59.163Z,73.8
2022-12-04T06:19:16.149Z,73.7
2022-12-04T06:20:33.257Z,74.2
2022-12-04T06:21:50.134Z,74.8
2022-12-04T06:23:07.412Z,75.4
2022-12-04T06:24:24.175Z,76
2022-12-04T06:25:41.310Z,76.4
2022-12-04T06:27:25.995Z,76.9
2022-12-04T06:28:15.154Z,77
2022-12-04T06:29:32.181Z,77
2022-12-04T06:30:49.203Z,77.1
2022-12-04T06:32:06.226Z,77.1
2022-12-04T06:33:23.193Z,77
2022-12-04T06:34:40.170Z,77
2022-12-04T06:35:57.189Z,76.8
2022-12-04T06:37:14.145Z,76.4
2022-12-04T06:38:31.207Z,76.2
2022-12-04T06:39:48.147Z,75.9
2022-12-04T06:41:05.216Z,75.7
2022-12-04T06:42:22.205Z,75.7
2022-12-04T06:43:39.160Z,75.6
2022-12-04T06:44:56.166Z,75.6
2022-12-04T06:46:13.256Z,75.5
2022-12-04T06:47:30.215Z,75.6
2022-12-04T06:48:47.204Z,76
2022-12-04T06:50:04.404Z,76.2
2022-12-04T06:51:21.229Z,76.5
2022-12-04T06:52:38.182Z,76.4
2022-12-04T06:53:55.210Z,76.3
2022-12-04T06:55:12.182Z,75.6
2022-12-04T06:56:29.192Z,74.9
2022-12-04T06:57:46.174Z,74.3
2022-12-04T06:59:04.187Z,73.7
2022-12-04T07:00:21.202Z,73.1
2022-12-04T07:01:38.373Z,72.2
2022-12-04T07:02:55.328Z,71.3
2022-12-04T07:04:12.224Z,70.5
2022-12-04T07:05:29.198Z,69.6
2022-12-04T07:06:46.249Z,69
2022-12-04T07:08:03.296Z,68.8
2022-12-04T07:09:20.302Z,69
2022-12-04T07:10:37.197Z,69.2
2022-12-04T07:11:54.237Z,69.6
2022-12-04T07:13:11.218Z,69.9
2022-12-04T07:14:28.322Z,70.2
2022-12-04T07:15:45.383Z,70.9
2022-12-04T07:17:02.622Z,71.3
2022-12-04T07:18:19.224Z,71.5
2022-12-04T07:19:36.214Z,71.5
2022-12-04T07:20:53.200Z,71.2
2022-12-04T07:22:10.341Z,70.9
2022-12-04T07:23:27.225Z,70.4
2022-12-04T07:24:44.253Z,70
2022-12-04T07:26:01.374Z,69.6
2022-12-04T07:27:18.283Z,69.4
2022-12-04T07:28:35.240Z,68.8
2022-12-04T07:29:52.364Z,69
2022-12-04T07:31:09.847Z,69
2022-12-04T07:32:26.897Z,69
2022-12-04T07:33:43.326Z,68.6
2022-12-04T07:35:00.314Z,68.4
2022-12-04T07:36:17.220Z,68.2
2022-12-04T07:37:34.266Z,67.6
2022-12-04T07:38:51.310Z,67.1
2022-12-04T07:40:08.670Z,66.9
2022-12-04T07:41:25.270Z,66.9
2022-12-04T07:42:42.228Z,66.8
2022-12-04T07:43:59.258Z,67.1
2022-12-04T07:45:16.396Z,67.3
2022-12-04T07:46:33.363Z,67.6
2022-12-04T07:47:50.281Z,67.6
2022-12-04T07:49:07.378Z,68
2022-12-04T07:50:24.268Z,68.4
2022-12-04T07:51:41.310Z,68.5
2022-12-04T07:52:58.650Z,68
2022-12-04T07:54:16.021Z,68.1
2022-12-04T07:55:33.276Z,68.5
2022-12-04T07:56:51.048Z,69
2022-12-04T07:58:08.326Z,69.3
2022-12-04T07:59:25.397Z,69.6
2022-12-04T08:00:42.270Z,69.6
2022-12-04T08:01:59.344Z,69.7
2022-12-04T08:03:16.968Z,69.8
2022-12-04T08:04:33.372Z,69.7
2022-12-04T08:05:50.276Z,69.6
2022-12-04T08:07:07.299Z,68.9
2022-12-04T08:08:24.499Z,67.9
2022-12-04T08:09:41.281Z,67.5
2022-12-04T08:10:58.643Z,67.2
2022-12-04T08:12:15.338Z,67
2022-12-04T08:13:32.318Z,66.9
2022-12-04T08:14:49.808Z,66.4
2022-12-04T08:16:06.305Z,65.9
2022-12-04T08:17:23.672Z,65.4
2022-12-04T08:18:40.706Z,65
2022-12-04T08:19:57.627Z,64.7
2022-12-04T08:21:14.569Z,64.2
2022-12-04T08:22:31.403Z,63.8
2022-12-04T08:23:48.539Z,63
2022-12-04T08:25:05.339Z,62.4
2022-12-04T08:26:22.329Z,62.6
2022-12-04T08:27:42.008Z,62.3
2022-12-04T08:28:56.346Z,62.6
2022-12-04T08:30:13.684Z,63.4
2022-12-04T08:31:30.383Z,64.2
2022-12-04T08:32:47.339Z,64.8
2022-12-04T08:34:04.612Z,65.5
2022-12-04T08:35:21.477Z,66.1
2022-12-04T08:36:38.328Z,66.6
2022-12-04T08:37:55.373Z,66.9
2022-12-04T08:39:12.548Z,67.6
2022-12-04T08:40:29.314Z,67.9
2022-12-04T08:41:46.341Z,68.3
2022-12-04T08:43:03.329Z,68.8
2022-12-04T08:44:20.323Z,69.5
2022-12-04T08:45:37.525Z,70.5
2022-12-04T08:46:55.137Z,71.5
2022-12-04T08:48:12.340Z,72.5
2022-12-04T08:49:29.346Z,73.3
2022-12-04T08:50:46.395Z,73.9
2022-12-04T08:52:03.376Z,73.8
2022-12-04T08:53:20.437Z,73.6
2022-12-04T08:54:37.490Z,73
2022-12-04T08:55:54.563Z,72.7
2022-12-04T08:57:11.449Z,72.8
2022-12-04T08:58:29.252Z,72.3
2022-12-04T08:59:46.394Z,72
2022-12-04T09:01:03.472Z,71.1
2022-12-04T09:02:20.355Z,70.5
2022-12-04T09:03:37.354Z,70.9
2022-12-04T09:04:54.517Z,71.5
2022-12-04T09:06:11.409Z,72
2022-12-04T09:07:28.405Z,72.3
2022-12-04T09:08:45.374Z,72.3
2022-12-04T09:10:02.668Z,71.9
2022-12-04T09:11:19.392Z,71.1
2022-12-04T09:12:36.346Z,71
2022-12-04T09:13:53.393Z,70.8
2022-12-04T09:15:11.179Z,69.8
2022-12-04T09:16:28.507Z,68.6
2022-12-04T09:17:45.363Z,67.6
2022-12-04T09:19:02.411Z,66.5
2022-12-04T09:20:19.376Z,65.2
2022-12-04T09:21:36.429Z,64.6
2022-12-04T09:23:03.777Z,65
2022-12-04T09:24:10.368Z,64.9
2022-12-04T09:25:27.437Z,64.8
2022-12-04T09:26:44.465Z,64.8
2022-12-04T09:28:01.400Z,65
2022-12-04T09:29:18.373Z,64.3
2022-12-04T09:30:35.466Z,63.8
2022-12-04T09:31:52.457Z,62
2022-12-04T09:33:09.403Z,60.8
2022-12-04T09:34:26.414Z,60.1
2022-12-04T09:35:44.138Z,58.9
2022-12-04T09:37:01.441Z,58.1
2022-12-04T09:38:18.423Z,56.9
2022-12-04T09:39:36.393Z,56.9
2022-12-04T09:40:53.415Z,56.8
2022-12-04T09:42:10.439Z,55.9
2022-12-04T09:43:27.440Z,55.6
2022-12-04T09:44:44.455Z,54.3
2022-12-04T09:46:01.489Z,52.2
2022-12-04T09:47:18.623Z,51.3
2022-12-04T09:48:35.465Z,51.1
2022-12-04T09:49:52.617Z,51.6
2022-12-04T09:51:09.476Z,51.4
2022-12-04T09:52:27.293Z,52.1
2022-12-04T09:53:44.408Z,53.9
2022-12-04T09:55:01.440Z,55.7
2022-12-04T09:56:18.460Z,57.2
2022-12-04T09:57:35.526Z,58.1
2022-12-04T10:02:46.682Z,60.3
2022-12-04T10:04:06.238Z,60.3
2022-12-04T10:05:20.453Z,60.3
2022-12-04T10:06:38.016Z,60.9
2022-12-04T10:07:55.525Z,60.6
2022-12-04T10:09:12.707Z,59.9
2022-12-04T10:10:29.587Z,59
2022-12-04T10:11:46.508Z,57.5
2022-12-04T10:13:03.465Z,56.1
2022-12-04T10:14:20.494Z,55.6
2022-12-04T10:15:37.957Z,55.3
2022-12-04T10:16:54.455Z,54.5
2022-12-04T10:18:11.540Z,53.5
2022-12-04T10:19:28.473Z,53.4
2022-12-04T10:20:45.455Z,53.1
2022-12-04T10:22:02.493Z,52.8
2022-12-04T10:23:19.522Z,52.9
2022-12-04T10:24:37.648Z,53.1
2022-12-04T10:25:54.489Z,52.8
2022-12-04T10:27:11.486Z,52.8
2022-12-04T10:28:28.497Z,53
2022-12-04T10:29:45.474Z,52.6
2022-12-04T10:31:02.682Z,52.2
2022-12-04T10:32:19.479Z,52.3
2022-12-04T10:33:38.858Z,52
2022-12-04T10:34:58.226Z,51.9
2022-12-04T10:36:15.493Z,52.2
2022-12-04T10:37:32.492Z,52.4
2022-12-04T10:38:49.522Z,52.7
2022-12-04T10:40:06.527Z,53.5
2022-12-04T10:41:23.560Z,53.5
2022-12-04T10:42:40.651Z,53.7
2022-12-04T10:43:57.503Z,53.8
2022-12-04T10:45:14.489Z,53.9
2022-12-04T10:46:31.572Z,53.8
2022-12-04T10:47:48.633Z,53.7
2022-12-04T10:49:07.422Z,53.7
2022-12-04T10:50:25.764Z,53.3
2022-12-04T10:51:42.529Z,53.1
2022-12-04T10:52:59.597Z,53.2
2022-12-04T10:54:16.523Z,54.3
2022-12-04T10:55:33.507Z,55.7
2022-12-04T10:56:50.506Z,56.3
2022-12-04T10:58:07.690Z,57.2
2022-12-04T10:59:24.614Z,57.8
2022-12-04T11:00:41.580Z,57.9
2022-12-04T11:07:46.773Z,57.6
2022-12-04T11:09:03.651Z,58
2022-12-04T11:10:20.552Z,58
2022-12-04T11:11:37.534Z,57.8
2022-12-04T11:12:54.647Z,57.2
2022-12-04T11:14:11.568Z,56.8
2022-12-04T11:15:28.546Z,56.6
2022-12-04T11:16:48.121Z,55.9
2022-12-04T11:18:06.774Z,55
2022-12-04T11:19:23.530Z,54.3
2022-12-04T11:20:44.078Z,53.7
2022-12-04T11:21:57.566Z,54
2022-12-04T11:23:15.281Z,54.4
2022-12-04T11:24:32.617Z,54.9
2022-12-04T11:25:49.824Z,55.4
2022-12-04T11:27:06.600Z,55.6
2022-12-04T11:28:40.426Z,55.6
2022-12-04T11:29:40.684Z,55.1
2022-12-04T11:30:57.952Z,55
2022-12-04T11:32:14.605Z,55.3
2022-12-04T11:33:31.692Z,55.2
2022-12-04T11:34:48.594Z,54.4
2022-12-04T11:36:05.652Z,53.1
2022-12-04T11:37:22.575Z,52.5
2022-12-04T11:38:39.594Z,52.4
2022-12-04T11:39:57.239Z,52.8
2022-12-04T11:41:13.618Z,53.4
2022-12-04T11:42:30.595Z,53.8
2022-12-04T11:43:47.605Z,54.2
2022-12-04T11:45:04.801Z,54.4
2022-12-04T11:46:21.712Z,54.5
2022-12-04T11:47:38.592Z,54.4
2022-12-04T11:48:55.644Z,54.2
2022-12-04T11:50:12.621Z,53.8
2022-12-04T11:51:30.192Z,53.2
2022-12-04T11:52:47.575Z,52.7
2022-12-04T11:54:04.743Z,52.1
2022-12-04T11:59:16.631Z,51.1
2022-12-04T12:00:35.463Z,50.7
2022-12-04T12:01:56.394Z,50.2
2022-12-04T12:03:08.922Z,50.1
2022-12-04T12:04:25.808Z,51.1
2022-12-04T12:05:42.609Z,51.9
2022-12-04T12:06:59.706Z,52.4
2022-12-04T12:08:16.667Z,52.3
2022-12-04T12:09:33.628Z,52.4
2022-12-04T12:10:50.631Z,53.2
2022-12-04T12:12:07.689Z,53.9
2022-12-04T12:13:24.926Z,53.8
2022-12-04T12:14:41.742Z,54.8
2022-12-04T12:15:58.983Z,55.4
2022-12-04T12:17:15.673Z,55.7
2022-12-04T12:18:32.710Z,55.5
2022-12-04T12:19:49.648Z,56.3
2022-12-04T12:21:06.645Z,57.3
2022-12-04T12:22:23.663Z,57.9
2022-12-04T12:23:41.399Z,57.9
2022-12-04T12:24:59.009Z,57.9
2022-12-04T12:26:15.674Z,58
2022-12-04T12:27:32.657Z,58.1
2022-12-04T12:28:49.708Z,58.6
2022-12-04T12:30:06.825Z,59.2
2022-12-04T12:31:23.693Z,59.6
2022-12-04T12:32:40.699Z,60.5
2022-12-04T12:33:57.689Z,61
2022-12-04T12:35:14.874Z,61.1
2022-12-04T12:36:31.647Z,60.8
2022-12-04T12:37:48.721Z,60.4
2022-12-04T12:39:05.653Z,60.4
2022-12-04T12:40:22.692Z,60.8
2022-12-04T12:41:39.691Z,61.3
2022-12-04T12:42:58.356Z,61.7
2022-12-04T12:44:13.671Z,62.3
2022-12-04T12:45:30.761Z,62.6
2022-12-04T12:46:47.767Z,62.6
2022-12-04T12:48:04.708Z,62.8
2022-12-04T12:49:21.835Z,62.5
2022-12-04T12:50:38.684Z,62.6
2022-12-04T12:51:55.760Z,62.5
2022-12-04T12:53:12.685Z,62
2022-12-04T12:54:29.720Z,61.4
2022-12-04T12:55:46.710Z,60.2
2022-12-04T12:57:03.737Z,59.9
2022-12-04T12:58:20.699Z,59.9
2022-12-04T12:59:37.766Z,60.3
2022-12-04T13:00:54.775Z,61.1
2022-12-04T13:02:11.796Z,61.5
2022-12-04T13:03:28.733Z,61.2
2022-12-04T13:04:45.704Z,60.6
2022-12-04T13:06:02.781Z,61.6
2022-12-04T13:07:19.742Z,61.5
2022-12-04T13:08:36.714Z,62.1
2022-12-04T13:09:53.998Z,62.2
2022-12-04T13:11:10.788Z,62.6
2022-12-04T13:12:27.714Z,63.1
2022-12-04T13:13:44.702Z,63.2
2022-12-04T13:15:01.732Z,63
2022-12-04T13:16:18.776Z,62.8
2022-12-04T13:17:35.737Z,63
2022-12-04T13:18:52.724Z,63.2
2022-12-04T13:20:10.303Z,63.7
2022-12-04T13:21:26.796Z,63.9
2022-12-04T13:22:43.771Z,64.1
2022-12-04T13:24:00.716Z,63.5
2022-12-04T13:25:17.725Z,63.4
2022-12-04T13:26:34.791Z,63.5
2022-12-04T13:27:51.755Z,63.7
2022-12-04T13:29:08.716Z,64
2022-12-04T13:30:25.809Z,63.9
2022-12-04T13:31:42.847Z,64.1
2022-12-04T13:32:59.806Z,64.7
2022-12-04T13:34:16.754Z,65.4
2022-12-04T13:35:33.736Z,66
2022-12-04T13:36:50.841Z,66.7
2022-12-04T13:38:07.746Z,67.2
2022-12-04T13:39:24.749Z,67.3
2022-12-04T13:40:41.808Z,67.4
2022-12-04T13:41:58.739Z,67.8
2022-12-04T13:43:15.762Z,68
2022-12-04T13:44:33.253Z,68.1
2022-12-04T13:45:49.879Z,67.8
2022-12-04T13:47:06.819Z,67.8
2022-12-04T13:48:23.832Z,68.3
2022-12-04T13:49:40.958Z,68.7
2022-12-04T13:50:57.765Z,69.4
2022-12-04T13:52:14.750Z,69.6
2022-12-04T13:53:31.759Z,69.7
2022-12-04T13:54:48.783Z,69.5
2022-12-04T13:56:08.760Z,69.4
2022-12-04T13:57:22.786Z,69.7
2022-12-04T13:58:40.333Z,69.8
2022-12-04T13:59:57.781Z,70
2022-12-04T14:01:14.858Z,69.9
2022-12-04T14:02:31.840Z,69.7
2022-12-04T14:03:48.806Z,70
2022-12-04T14:05:05.813Z,70
2022-12-04T14:06:22.934Z,69.9
2022-12-04T14:07:39.865Z,70
2022-12-04T14:08:56.870Z,70.1
2022-12-04T14:10:13.775Z,70
2022-12-04T14:11:30.875Z,69.8
2022-12-04T14:12:47.795Z,69.5
2022-12-04T14:14:08.025Z,69.6
2022-12-04T14:15:21.828Z,69.8
2022-12-04T14:16:39.390Z,70.3
2022-12-04T14:17:55.801Z,70.5
2022-12-04T14:19:12.815Z,70.8
2022-12-04T14:20:29.846Z,70.9
2022-12-04T14:21:46.837Z,70.9
2022-12-04T14:23:03.811Z,70.9
2022-12-04T14:24:20.842Z,71.4
2022-12-04T14:25:37.835Z,71.9
2022-12-04T14:27:11.881Z,72.4
2022-12-04T14:28:11.858Z,72.7
2022-12-04T14:29:28.798Z,73
2022-12-04T14:30:45.908Z,73.3
2022-12-04T14:32:02.902Z,73.9
2022-12-04T14:33:20.591Z,74.6
2022-12-04T14:34:36.829Z,75.1
2022-12-04T14:35:53.852Z,75.2
2022-12-04T14:37:10.806Z,75
2022-12-04T14:38:27.822Z,74.9
2022-12-04T14:39:44.814Z,74.9
2022-12-04T14:41:01.930Z,75.3
2022-12-04T14:42:18.868Z,75.6
2022-12-04T14:43:35.859Z,75.6
2022-12-04T14:44:52.942Z,75.6
2022-12-04T14:46:09.884Z,76.1
2022-12-04T14:47:26.853Z,76.8
2022-12-04T14:48:44.056Z,77
2022-12-04T14:50:01.094Z,77.3
2022-12-04T14:51:17.873Z,77.5
2022-12-04T14:52:34.946Z,77.5
2022-12-04T14:53:51.869Z,77.5
2022-12-04T14:55:08.847Z,77.7
2022-12-04T14:56:25.828Z,77.8
2022-12-04T14:57:42.867Z,78.1
2022-12-04T14:58:59.930Z,78.4
2022-12-04T15:00:16.856Z,78.2
2022-12-04T15:01:33.858Z,78
2022-12-04T15:02:50.903Z,78.1
2022-12-04T15:04:07.947Z,78.1
2022-12-04T15:05:24.903Z,78.4
2022-12-04T15:06:41.861Z,78.8
2022-12-04T15:07:58.942Z,79.5
2022-12-04T15:09:15.928Z,79.9
2022-12-04T15:10:32.882Z,79.9
2022-12-04T15:11:49.859Z,80
2022-12-04T15:13:06.872Z,80.1
2022-12-04T15:14:24.365Z,80.1
2022-12-04T15:15:40.881Z,80.3
2022-12-04T15:16:58.014Z,80.7
2022-12-04T15:18:14.921Z,80.9
2022-12-04T15:19:31.881Z,80.9
2022-12-04T15:20:48.903Z,80.8
2022-12-04T15:22:10.172Z,80.8
2022-12-04T15:23:23.277Z,80.7
2022-12-04T15:24:39.915Z,80.4
2022-12-04T15:25:57.135Z,80.4
2022-12-04T15:27:13.888Z,80.5
2022-12-04T15:28:30.923Z,80.4
2022-12-04T15:29:47.867Z,80.3
2022-12-04T15:31:04.956Z,80.6
2022-12-04T15:32:21.883Z,80.5
2022-12-04T15:33:38.915Z,80.2
2022-12-04T15:34:56.107Z,80.6
2022-12-04T15:36:12.966Z,81.2
2022-12-04T15:37:29.896Z,81.5
2022-12-04T15:38:46.888Z,82.1
2022-12-04T15:40:04.134Z,82.1
2022-12-04T15:41:22.754Z,81.9
2022-12-04T15:42:37.892Z,81.7
2022-12-04T15:43:54.904Z,81.6
2022-12-04T15:45:12.005Z,81.2
2022-12-04T15:46:28.991Z,81
2022-12-04T15:47:45.933Z,80.9
2022-12-04T15:49:03.245Z,80.7
2022-12-04T15:50:19.948Z,80.5
2022-12-04T15:51:36.997Z,80.2
2022-12-04T15:52:53.967Z,79.9
2022-12-04T15:54:10.935Z,79.7
2022-12-04T15:55:27.927Z,79.7
2022-12-04T15:56:44.924Z,79.9
2022-12-04T15:58:01.962Z,79.9
2022-12-04T15:59:18.922Z,80
2022-12-04T16:00:35.976Z,80.2
2022-12-04T16:01:53.047Z,80.5
2022-12-04T16:03:09.952Z,80.8
2022-12-04T16:04:27.017Z,80.7
2022-12-04T16:05:43.967Z,80.3
2022-12-04T16:07:00.963Z,80.5
2022-12-04T16:08:17.956Z,80.9
2022-12-04T16:09:34.977Z,81.5
2022-12-04T16:10:51.963Z,81.7
2022-12-04T16:12:08.937Z,82.2
2022-12-04T16:13:25.941Z,82.6
2022-12-04T16:14:42.979Z,82.8
2022-12-04T16:16:00.066Z,83.1
2022-12-04T16:17:16.972Z,83.1
2022-12-04T16:18:33.960Z,83.2
2022-12-04T16:19:50.960Z,83.2
2022-12-04T16:21:08.011Z,82.9
2022-12-04T16:22:25.023Z,82.6
2022-12-04T16:23:41.951Z,82.4
2022-12-04T16:24:59.334Z,82
2022-12-04T16:26:15.958Z,81.8
2022-12-04T16:27:32.998Z,81.8
2022-12-04T16:28:49.977Z,82.3
2022-12-04T16:30:07.285Z,82.9
2022-12-04T16:31:24.075Z,83.3
2022-12-04T16:32:40.974Z,83.7
2022-12-04T16:33:58.016Z,83.8
2022-12-04T16:35:14.988Z,83.7
2022-12-04T16:36:31.985Z,83.8
2022-12-04T16:37:49.223Z,84
2022-12-04T16:39:05.986Z,84.1
2022-12-04T16:40:23.059Z,84
2022-12-04T16:41:39.972Z,84.1
2022-12-04T16:42:57.029Z,84.1
2022-12-04T16:44:13.975Z,84.2
2022-12-04T16:45:31.014Z,84.4
2022-12-04T16:46:48.045Z,84.3
2022-12-04T16:48:04.996Z,83.9
2022-12-04T16:49:21.980Z,83.6
2022-12-04T16:50:38.990Z,83.7
2022-12-04T16:51:56.033Z,83.7
2022-12-04T16:53:13.028Z,83.5
2022-12-04T16:54:30.188Z,83.3
2022-12-04T16:55:47.026Z,83.4
2022-12-04T16:57:04.063Z,83.8
2022-12-04T16:58:20.990Z,84.3
2022-12-04T16:59:38.034Z,84.7
2022-12-04T17:00:55.409Z,85
2022-12-04T17:02:12.058Z,84.6
2022-12-04T17:03:29.017Z,84.2
2022-12-04T17:04:46.085Z,83.9
2022-12-04T17:06:03.069Z,83.7
2022-12-04T17:07:19.986Z,83.3
2022-12-04T17:08:37.047Z,83
2022-12-04T17:09:54.077Z,82.9
2022-12-04T17:11:11.009Z,82.9
2022-12-04T17:12:28.016Z,83.1
2022-12-04T17:13:45.024Z,83.3
2022-12-04T17:15:02.268Z,83.6
2022-12-04T17:16:19.984Z,84
2022-12-04T17:17:36.011Z,84.2
2022-12-04T17:18:53.363Z,84.3
2022-12-04T17:20:10.115Z,84.4
2022-12-04T17:24:07.493Z,84.7
2022-12-04T17:25:24.077Z,84.8
2022-12-04T17:26:41.046Z,85
2022-12-04T17:27:58.082Z,85.2
2022-12-04T17:29:15.068Z,85.3